sensor_id;sensor_type;location;lat;lon;timestamp;temperature;humidity
11320;DHT22;5715;48.234;14.320;2022-08-19T00:02:15;17.80;99.90
11320;DHT22;5715;48.234;14.320;2022-08-19T00:05:03;17.80;99.90
11320;DHT22;5715;48.234;14.320;2022-08-19T00:07:52;17.80;99.90
11320;DHT22;5715;48.234;14.320;2022-08-19T00:10:39;17.70;99.90
11320;DHT22;5715;48.234;14.320;2022-08-19T00:13:27;17.70;99.90
11320;DHT22;5715;48.234;14.320;2022-08-19T00:16:16;17.70;99.90
11320;DHT22;5715;48.234;14.320;2022-08-19T00:19:13;17.70;99.90
11320;DHT22;5715;48.234;14.320;2022-08-19T00:22:01;17.70;99.90
11320;DHT22;5715;48.234;14.320;2022-08-19T00:24:49;17.60;99.90
11320;DHT22;5715;48.234;14.320;2022-08-19T00:27:38;17.60;99.90
11320;DHT22;5715;48.234;14.320;2022-08-19T00:30:26;17.50;99.90
11320;DHT22;5715;48.234;14.320;2022-08-19T00:33:17;17.50;99.90
11320;DHT22;5715;48.234;14.320;2022-08-19T00:36:07;17.50;99.90
11320;DHT22;5715;48.234;14.320;2022-08-19T00:38:56;17.40;99.90
11320;DHT22;5715;48.234;14.320;2022-08-19T00:41:46;17.50;99.90
11320;DHT22;5715;48.234;14.320;2022-08-19T00:44:36;17.50;99.90
11320;DHT22;5715;48.234;14.320;2022-08-19T00:47:24;17.40;99.90
11320;DHT22;5715;48.234;14.320;2022-08-19T00:50:14;17.40;99.90
11320;DHT22;5715;48.234;14.320;2022-08-19T00:53:06;17.40;99.90
11320;DHT22;5715;48.234;14.320;2022-08-19T00:55:57;17.40;99.90
11320;DHT22;5715;48.234;14.320;2022-08-19T00:58:46;17.50;99.90
11320;DHT22;5715;48.234;14.320;2022-08-19T01:01:37;17.50;99.90
11320;DHT22;5715;48.234;14.320;2022-08-19T01:04:27;17.50;99.90
11320;DHT22;5715;48.234;14.320;2022-08-19T01:07:14;17.60;99.90
11320;DHT22;5715;48.234;14.320;2022-08-19T01:10:09;17.60;99.90
11320;DHT22;5715;48.234;14.320;2022-08-19T01:13:01;17.50;99.90
11320;DHT22;5715;48.234;14.320;2022-08-19T01:16:08;17.40;99.90
11320;DHT22;5715;48.234;14.320;2022-08-19T01:18:57;17.40;99.90
11320;DHT22;5715;48.234;14.320;2022-08-19T01:21:55;17.40;99.90
11320;DHT22;5715;48.234;14.320;2022-08-19T01:25:01;17.30;99.90
11320;DHT22;5715;48.234;14.320;2022-08-19T01:28:00;17.30;99.90
11320;DHT22;5715;48.234;14.320;2022-08-19T01:30:57;17.20;99.90
11320;DHT22;5715;48.234;14.320;2022-08-19T01:33:45;17.20;99.90
11320;DHT22;5715;48.234;14.320;2022-08-19T01:36:42;17.40;99.90
11320;DHT22;5715;48.234;14.320;2022-08-19T01:39:37;17.40;99.90
11320;DHT22;5715;48.234;14.320;2022-08-19T01:42:26;17.40;99.90
11320;DHT22;5715;48.234;14.320;2022-08-19T01:45:18;17.40;99.90
11320;DHT22;5715;48.234;14.320;2022-08-19T01:48:07;17.40;99.90
11320;DHT22;5715;48.234;14.320;2022-08-19T01:50:55;17.40;99.90
11320;DHT22;5715;48.234;14.320;2022-08-19T01:53:48;17.50;99.90
11320;DHT22;5715;48.234;14.320;2022-08-19T01:56:37;17.50;99.90
11320;DHT22;5715;48.234;14.320;2022-08-19T01:59:26;17.50;99.90
11320;DHT22;5715;48.234;14.320;2022-08-19T02:02:14;17.40;99.90
11320;DHT22;5715;48.234;14.320;2022-08-19T02:05:03;17.40;99.90
11320;DHT22;5715;48.234;14.320;2022-08-19T02:07:51;17.30;99.90
11320;DHT22;5715;48.234;14.320;2022-08-19T02:10:41;17.20;99.90
11320;DHT22;5715;48.234;14.320;2022-08-19T02:13:31;17.20;99.90
11320;DHT22;5715;48.234;14.320;2022-08-19T02:16:21;17.10;99.90
11320;DHT22;5715;48.234;14.320;2022-08-19T02:19:09;17.20;99.90
11320;DHT22;5715;48.234;14.320;2022-08-19T02:21:57;17.20;99.90
11320;DHT22;5715;48.234;14.320;2022-08-19T02:24:45;17.20;99.90
11320;DHT22;5715;48.234;14.320;2022-08-19T02:27:33;17.30;99.90
11320;DHT22;5715;48.234;14.320;2022-08-19T02:30:21;17.40;99.90
11320;DHT22;5715;48.234;14.320;2022-08-19T02:33:09;17.50;99.90
11320;DHT22;5715;48.234;14.320;2022-08-19T02:35:56;17.50;99.90
11320;DHT22;5715;48.234;14.320;2022-08-19T02:38:44;17.60;99.90
11320;DHT22;5715;48.234;14.320;2022-08-19T02:41:41;17.60;99.90
11320;DHT22;5715;48.234;14.320;2022-08-19T02:44:29;17.60;99.90
11320;DHT22;5715;48.234;14.320;2022-08-19T02:47:18;17.60;99.90
11320;DHT22;5715;48.234;14.320;2022-08-19T02:50:07;17.70;99.90
11320;DHT22;5715;48.234;14.320;2022-08-19T02:52:54;17.70;99.90
11320;DHT22;5715;48.234;14.320;2022-08-19T02:55:46;17.60;99.90
11320;DHT22;5715;48.234;14.320;2022-08-19T02:58:34;17.50;99.90
11320;DHT22;5715;48.234;14.320;2022-08-19T03:01:28;17.50;99.90
11320;DHT22;5715;48.234;14.320;2022-08-19T03:04:18;17.50;99.90
11320;DHT22;5715;48.234;14.320;2022-08-19T03:07:06;17.50;99.90
11320;DHT22;5715;48.234;14.320;2022-08-19T03:09:57;17.60;99.90
11320;DHT22;5715;48.234;14.320;2022-08-19T03:12:45;17.60;99.90
11320;DHT22;5715;48.234;14.320;2022-08-19T03:15:33;17.60;99.90
11320;DHT22;5715;48.234;14.320;2022-08-19T03:18:21;17.60;99.90
11320;DHT22;5715;48.234;14.320;2022-08-19T03:21:10;17.60;99.90
11320;DHT22;5715;48.234;14.320;2022-08-19T03:24:11;17.60;99.90
11320;DHT22;5715;48.234;14.320;2022-08-19T03:27:00;17.60;99.90
11320;DHT22;5715;48.234;14.320;2022-08-19T03:29:48;17.50;99.90
11320;DHT22;5715;48.234;14.320;2022-08-19T03:32:38;17.50;99.90
11320;DHT22;5715;48.234;14.320;2022-08-19T03:35:31;17.40;99.90
11320;DHT22;5715;48.234;14.320;2022-08-19T03:38:18;17.30;99.90
11320;DHT22;5715;48.234;14.320;2022-08-19T03:41:16;17.20;99.90
11320;DHT22;5715;48.234;14.320;2022-08-19T03:44:08;17.20;99.90
11320;DHT22;5715;48.234;14.320;2022-08-19T03:47:04;17.10;99.90
11320;DHT22;5715;48.234;14.320;2022-08-19T03:49:52;17.00;99.90
11320;DHT22;5715;48.234;14.320;2022-08-19T03:52:40;16.90;99.90
11320;DHT22;5715;48.234;14.320;2022-08-19T03:55:40;16.80;99.90
11320;DHT22;5715;48.234;14.320;2022-08-19T03:58:29;16.80;99.90
11320;DHT22;5715;48.234;14.320;2022-08-19T04:01:19;16.90;99.90
11320;DHT22;5715;48.234;14.320;2022-08-19T04:04:21;16.90;99.90
11320;DHT22;5715;48.234;14.320;2022-08-19T04:07:12;17.00;99.90
11320;DHT22;5715;48.234;14.320;2022-08-19T04:10:05;17.00;99.90
11320;DHT22;5715;48.234;14.320;2022-08-19T04:12:56;17.10;99.90
11320;DHT22;5715;48.234;14.320;2022-08-19T04:15:45;17.20;99.90
11320;DHT22;5715;48.234;14.320;2022-08-19T04:18:33;17.20;99.90
11320;DHT22;5715;48.234;14.320;2022-08-19T04:21:25;17.30;99.90
11320;DHT22;5715;48.234;14.320;2022-08-19T04:24:14;17.50;99.90
11320;DHT22;5715;48.234;14.320;2022-08-19T04:27:05;17.60;99.90
11320;DHT22;5715;48.234;14.320;2022-08-19T04:29:53;17.70;99.90
11320;DHT22;5715;48.234;14.320;2022-08-19T04:32:40;17.80;99.90
11320;DHT22;5715;48.234;14.320;2022-08-19T04:35:41;17.80;99.90
11320;DHT22;5715;48.234;14.320;2022-08-19T04:38:30;17.90;99.90
11320;DHT22;5715;48.234;14.320;2022-08-19T04:41:18;17.90;99.90
11320;DHT22;5715;48.234;14.320;2022-08-19T04:44:25;18.00;99.90
11320;DHT22;5715;48.234;14.320;2022-08-19T04:47:13;18.10;99.90
11320;DHT22;5715;48.234;14.320;2022-08-19T04:50:00;18.20;99.90
11320;DHT22;5715;48.234;14.320;2022-08-19T04:52:50;18.30;99.90
11320;DHT22;5715;48.234;14.320;2022-08-19T04:55:41;18.30;99.90
11320;DHT22;5715;48.234;14.320;2022-08-19T04:58:29;18.40;99.90
11320;DHT22;5715;48.234;14.320;2022-08-19T05:01:20;18.50;99.90
11320;DHT22;5715;48.234;14.320;2022-08-19T05:04:10;18.60;99.90
11320;DHT22;5715;48.234;14.320;2022-08-19T05:06:57;18.60;99.90
11320;DHT22;5715;48.234;14.320;2022-08-19T05:09:47;18.60;99.90
11320;DHT22;5715;48.234;14.320;2022-08-19T05:12:44;18.60;99.90
11320;DHT22;5715;48.234;14.320;2022-08-19T05:15:33;18.50;99.90
11320;DHT22;5715;48.234;14.320;2022-08-19T05:18:20;18.50;99.90
11320;DHT22;5715;48.234;14.320;2022-08-19T05:21:28;18.50;99.90
11320;DHT22;5715;48.234;14.320;2022-08-19T05:24:35;18.50;99.90
11320;DHT22;5715;48.234;14.320;2022-08-19T05:27:44;18.50;99.90
11320;DHT22;5715;48.234;14.320;2022-08-19T05:30:31;18.50;99.90
11320;DHT22;5715;48.234;14.320;2022-08-19T05:33:33;18.50;99.90
11320;DHT22;5715;48.234;14.320;2022-08-19T05:36:21;18.40;99.90
11320;DHT22;5715;48.234;14.320;2022-08-19T05:39:10;18.40;99.90
11320;DHT22;5715;48.234;14.320;2022-08-19T05:42:04;18.40;99.90
11320;DHT22;5715;48.234;14.320;2022-08-19T05:44:54;18.40;99.90
11320;DHT22;5715;48.234;14.320;2022-08-19T05:47:43;18.40;99.90
11320;DHT22;5715;48.234;14.320;2022-08-19T05:50:32;18.40;99.90
11320;DHT22;5715;48.234;14.320;2022-08-19T05:53:20;18.40;99.90
11320;DHT22;5715;48.234;14.320;2022-08-19T05:56:11;18.50;99.90
11320;DHT22;5715;48.234;14.320;2022-08-19T05:59:04;18.60;99.90
11320;DHT22;5715;48.234;14.320;2022-08-19T06:01:58;18.70;99.90
11320;DHT22;5715;48.234;14.320;2022-08-19T06:04:46;18.90;99.90
11320;DHT22;5715;48.234;14.320;2022-08-19T06:07:37;19.00;99.90
11320;DHT22;5715;48.234;14.320;2022-08-19T06:10:26;19.00;99.90
11320;DHT22;5715;48.234;14.320;2022-08-19T06:13:14;19.00;99.90
11320;DHT22;5715;48.234;14.320;2022-08-19T06:16:02;19.20;99.90
11320;DHT22;5715;48.234;14.320;2022-08-19T06:18:53;19.50;99.90
11320;DHT22;5715;48.234;14.320;2022-08-19T06:21:43;19.70;99.90
11320;DHT22;5715;48.234;14.320;2022-08-19T06:24:34;19.90;99.90
11320;DHT22;5715;48.234;14.320;2022-08-19T06:27:22;20.10;99.90
11320;DHT22;5715;48.234;14.320;2022-08-19T06:30:11;20.40;99.90
11320;DHT22;5715;48.234;14.320;2022-08-19T06:32:59;20.60;99.90
11320;DHT22;5715;48.234;14.320;2022-08-19T06:35:46;20.90;99.90
11320;DHT22;5715;48.234;14.320;2022-08-19T06:38:34;21.10;99.90
11320;DHT22;5715;48.234;14.320;2022-08-19T06:41:21;21.30;99.90
11320;DHT22;5715;48.234;14.320;2022-08-19T06:44:10;21.50;99.90
11320;DHT22;5715;48.234;14.320;2022-08-19T06:47:00;21.80;99.90
11320;DHT22;5715;48.234;14.320;2022-08-19T06:50:01;21.90;99.90
11320;DHT22;5715;48.234;14.320;2022-08-19T06:52:52;22.00;99.90
11320;DHT22;5715;48.234;14.320;2022-08-19T06:55:39;22.00;99.90
11320;DHT22;5715;48.234;14.320;2022-08-19T06:58:31;22.00;99.90
11320;DHT22;5715;48.234;14.320;2022-08-19T07:01:21;22.20;99.90
11320;DHT22;5715;48.234;14.320;2022-08-19T07:04:09;22.30;99.90
11320;DHT22;5715;48.234;14.320;2022-08-19T07:07:01;22.30;99.90
11320;DHT22;5715;48.234;14.320;2022-08-19T07:10:06;22.50;99.90
11320;DHT22;5715;48.234;14.320;2022-08-19T07:12:54;22.50;99.90
11320;DHT22;5715;48.234;14.320;2022-08-19T07:15:42;22.60;99.90
11320;DHT22;5715;48.234;14.320;2022-08-19T07:18:29;22.60;99.90
11320;DHT22;5715;48.234;14.320;2022-08-19T07:21:23;22.60;99.90
11320;DHT22;5715;48.234;14.320;2022-08-19T07:24:16;22.70;99.90
11320;DHT22;5715;48.234;14.320;2022-08-19T07:27:05;22.90;99.90
11320;DHT22;5715;48.234;14.320;2022-08-19T07:30:02;22.80;99.90
11320;DHT22;5715;48.234;14.320;2022-08-19T07:32:51;22.70;99.90
11320;DHT22;5715;48.234;14.320;2022-08-19T07:35:39;22.60;99.90
11320;DHT22;5715;48.234;14.320;2022-08-19T07:38:27;22.60;99.90
11320;DHT22;5715;48.234;14.320;2022-08-19T07:41:18;22.50;99.90
11320;DHT22;5715;48.234;14.320;2022-08-19T07:44:08;22.50;99.90
11320;DHT22;5715;48.234;14.320;2022-08-19T07:46:58;22.50;99.90
11320;DHT22;5715;48.234;14.320;2022-08-19T07:49:47;22.50;99.90
11320;DHT22;5715;48.234;14.320;2022-08-19T07:52:37;22.50;99.90
11320;DHT22;5715;48.234;14.320;2022-08-19T07:55:26;22.50;99.90
11320;DHT22;5715;48.234;14.320;2022-08-19T07:58:34;22.40;99.90
11320;DHT22;5715;48.234;14.320;2022-08-19T08:01:26;22.50;99.90
11320;DHT22;5715;48.234;14.320;2022-08-19T08:04:15;22.60;99.90
11320;DHT22;5715;48.234;14.320;2022-08-19T08:07:22;22.70;99.90
11320;DHT22;5715;48.234;14.320;2022-08-19T08:10:32;22.90;99.90
11320;DHT22;5715;48.234;14.320;2022-08-19T08:13:20;23.20;99.90
11320;DHT22;5715;48.234;14.320;2022-08-19T08:16:08;23.30;99.90
11320;DHT22;5715;48.234;14.320;2022-08-19T08:19:00;23.20;99.90
11320;DHT22;5715;48.234;14.320;2022-08-19T08:21:49;23.40;99.90
11320;DHT22;5715;48.234;14.320;2022-08-19T08:24:37;23.40;99.90
11320;DHT22;5715;48.234;14.320;2022-08-19T08:27:26;23.40;99.90
11320;DHT22;5715;48.234;14.320;2022-08-19T08:30:22;23.40;99.90
11320;DHT22;5715;48.234;14.320;2022-08-19T08:33:21;23.70;99.90
11320;DHT22;5715;48.234;14.320;2022-08-19T08:36:21;24.10;99.90
11320;DHT22;5715;48.234;14.320;2022-08-19T08:39:09;24.70;99.90
11320;DHT22;5715;48.234;14.320;2022-08-19T08:42:01;24.60;99.90
11320;DHT22;5715;48.234;14.320;2022-08-19T08:45:10;24.70;99.90
11320;DHT22;5715;48.234;14.320;2022-08-19T08:48:11;25.20;99.90
11320;DHT22;5715;48.234;14.320;2022-08-19T08:51:23;25.60;99.90
11320;DHT22;5715;48.234;14.320;2022-08-19T08:54:24;25.80;99.90
11320;DHT22;5715;48.234;14.320;2022-08-19T08:57:23;25.00;99.90
11320;DHT22;5715;48.234;14.320;2022-08-19T09:00:30;24.60;99.90
11320;DHT22;5715;48.234;14.320;2022-08-19T09:03:25;24.50;99.90
11320;DHT22;5715;48.234;14.320;2022-08-19T09:06:29;24.60;99.90
11320;DHT22;5715;48.234;14.320;2022-08-19T09:09:38;24.70;99.90
11320;DHT22;5715;48.234;14.320;2022-08-19T09:12:41;24.70;99.90
11320;DHT22;5715;48.234;14.320;2022-08-19T09:16:00;25.00;99.90
11320;DHT22;5715;48.234;14.320;2022-08-19T09:18:56;25.20;99.90
11320;DHT22;5715;48.234;14.320;2022-08-19T09:21:45;24.60;99.90
11320;DHT22;5715;48.234;14.320;2022-08-19T09:24:33;24.50;99.90
11320;DHT22;5715;48.234;14.320;2022-08-19T09:27:23;24.50;99.90
11320;DHT22;5715;48.234;14.320;2022-08-19T09:30:34;24.60;99.90
11320;DHT22;5715;48.234;14.320;2022-08-19T09:33:27;24.80;99.90
11320;DHT22;5715;48.234;14.320;2022-08-19T09:36:19;25.00;99.90
11320;DHT22;5715;48.234;14.320;2022-08-19T09:39:20;25.10;99.90
11320;DHT22;5715;48.234;14.320;2022-08-19T09:42:09;25.20;99.90
11320;DHT22;5715;48.234;14.320;2022-08-19T09:45:19;25.50;99.90
11320;DHT22;5715;48.234;14.320;2022-08-19T09:48:08;25.70;99.90
11320;DHT22;5715;48.234;14.320;2022-08-19T09:51:25;25.90;99.90
11320;DHT22;5715;48.234;14.320;2022-08-19T09:54:15;25.90;99.90
11320;DHT22;5715;48.234;14.320;2022-08-19T09:57:09;25.90;99.90
11320;DHT22;5715;48.234;14.320;2022-08-19T09:59:57;26.10;99.90
11320;DHT22;5715;48.234;14.320;2022-08-19T10:02:45;26.30;99.90
11320;DHT22;5715;48.234;14.320;2022-08-19T10:05:32;26.30;99.90
11320;DHT22;5715;48.234;14.320;2022-08-19T10:08:36;26.40;99.90
11320;DHT22;5715;48.234;14.320;2022-08-19T10:11:38;26.60;99.90
11320;DHT22;5715;48.234;14.320;2022-08-19T10:14:38;26.80;99.90
11320;DHT22;5715;48.234;14.320;2022-08-19T10:17:26;26.70;99.90
11320;DHT22;5715;48.234;14.320;2022-08-19T10:20:19;26.50;99.90
11320;DHT22;5715;48.234;14.320;2022-08-19T10:23:07;26.30;99.90
11320;DHT22;5715;48.234;14.320;2022-08-19T10:25:59;25.90;99.90
11320;DHT22;5715;48.234;14.320;2022-08-19T10:28:49;25.80;99.90
11320;DHT22;5715;48.234;14.320;2022-08-19T10:31:37;25.80;99.90
11320;DHT22;5715;48.234;14.320;2022-08-19T10:34:45;25.90;99.90
11320;DHT22;5715;48.234;14.320;2022-08-19T10:37:36;25.60;99.90
11320;DHT22;5715;48.234;14.320;2022-08-19T10:40:43;25.80;99.90
11320;DHT22;5715;48.234;14.320;2022-08-19T10:43:31;26.30;99.90
11320;DHT22;5715;48.234;14.320;2022-08-19T10:46:19;26.60;99.90
11320;DHT22;5715;48.234;14.320;2022-08-19T10:49:10;26.90;99.90
11320;DHT22;5715;48.234;14.320;2022-08-19T10:51:58;27.30;99.90
11320;DHT22;5715;48.234;14.320;2022-08-19T10:55:09;27.20;99.90
11320;DHT22;5715;48.234;14.320;2022-08-19T10:58:18;26.90;99.90
11320;DHT22;5715;48.234;14.320;2022-08-19T11:01:10;26.90;99.90
11320;DHT22;5715;48.234;14.320;2022-08-19T11:04:01;26.80;99.90
11320;DHT22;5715;48.234;14.320;2022-08-19T11:06:49;27.00;99.90
11320;DHT22;5715;48.234;14.320;2022-08-19T11:09:41;27.10;99.90
11320;DHT22;5715;48.234;14.320;2022-08-19T11:12:29;27.20;99.90
11320;DHT22;5715;48.234;14.320;2022-08-19T11:15:17;27.40;99.90
11320;DHT22;5715;48.234;14.320;2022-08-19T11:18:05;27.50;99.90
11320;DHT22;5715;48.234;14.320;2022-08-19T11:21:29;27.50;99.90
11320;DHT22;5715;48.234;14.320;2022-08-19T11:24:21;27.70;99.90
11320;DHT22;5715;48.234;14.320;2022-08-19T11:27:10;28.20;99.90
11320;DHT22;5715;48.234;14.320;2022-08-19T11:29:58;28.50;99.90
11320;DHT22;5715;48.234;14.320;2022-08-19T11:32:47;28.40;99.90
11320;DHT22;5715;48.234;14.320;2022-08-19T11:35:39;28.40;99.90
11320;DHT22;5715;48.234;14.320;2022-08-19T11:38:27;28.20;99.90
11320;DHT22;5715;48.234;14.320;2022-08-19T11:41:18;28.10;99.90
11320;DHT22;5715;48.234;14.320;2022-08-19T11:44:07;28.00;99.90
11320;DHT22;5715;48.234;14.320;2022-08-19T11:46:55;28.30;99.90
11320;DHT22;5715;48.234;14.320;2022-08-19T11:49:46;28.40;99.90
11320;DHT22;5715;48.234;14.320;2022-08-19T11:52:34;28.30;99.90
11320;DHT22;5715;48.234;14.320;2022-08-19T11:55:22;28.30;99.90
11320;DHT22;5715;48.234;14.320;2022-08-19T11:58:11;28.30;99.90
11320;DHT22;5715;48.234;14.320;2022-08-19T12:01:06;28.70;99.90
11320;DHT22;5715;48.234;14.320;2022-08-19T12:03:56;28.90;99.90
11320;DHT22;5715;48.234;14.320;2022-08-19T12:06:45;29.00;99.90
11320;DHT22;5715;48.234;14.320;2022-08-19T12:09:33;29.00;99.90
11320;DHT22;5715;48.234;14.320;2022-08-19T12:12:21;28.90;99.90
11320;DHT22;5715;48.234;14.320;2022-08-19T12:15:10;28.80;99.90
11320;DHT22;5715;48.234;14.320;2022-08-19T12:17:59;28.60;99.90
11320;DHT22;5715;48.234;14.320;2022-08-19T12:20:46;28.40;99.90
11320;DHT22;5715;48.234;14.320;2022-08-19T12:23:34;28.40;99.90
11320;DHT22;5715;48.234;14.320;2022-08-19T12:26:26;28.50;99.90
11320;DHT22;5715;48.234;14.320;2022-08-19T12:29:14;28.60;99.90
11320;DHT22;5715;48.234;14.320;2022-08-19T12:32:09;28.50;99.90
11320;DHT22;5715;48.234;14.320;2022-08-19T12:34:58;28.30;99.90
11320;DHT22;5715;48.234;14.320;2022-08-19T12:37:47;28.00;99.90
11320;DHT22;5715;48.234;14.320;2022-08-19T12:40:46;27.90;99.90
11320;DHT22;5715;48.234;14.320;2022-08-19T12:43:35;27.70;99.90
11320;DHT22;5715;48.234;14.320;2022-08-19T12:46:23;27.70;99.90
11320;DHT22;5715;48.234;14.320;2022-08-19T12:49:12;28.00;99.90
11320;DHT22;5715;48.234;14.320;2022-08-19T12:52:19;28.00;99.90
11320;DHT22;5715;48.234;14.320;2022-08-19T12:55:10;28.10;99.90
11320;DHT22;5715;48.234;14.320;2022-08-19T12:57:58;28.30;99.90
11320;DHT22;5715;48.234;14.320;2022-08-19T13:00:48;28.20;99.90
11320;DHT22;5715;48.234;14.320;2022-08-19T13:03:36;28.50;99.90
11320;DHT22;5715;48.234;14.320;2022-08-19T13:06:26;29.00;99.90
11320;DHT22;5715;48.234;14.320;2022-08-19T13:09:14;29.30;99.90
11320;DHT22;5715;48.234;14.320;2022-08-19T13:12:03;29.40;99.90
11320;DHT22;5715;48.234;14.320;2022-08-19T13:14:55;29.30;99.90
11320;DHT22;5715;48.234;14.320;2022-08-19T13:17:43;29.20;99.90
11320;DHT22;5715;48.234;14.320;2022-08-19T13:20:30;29.10;99.90
11320;DHT22;5715;48.234;14.320;2022-08-19T13:23:18;29.10;99.90
11320;DHT22;5715;48.234;14.320;2022-08-19T13:26:07;28.90;99.90
11320;DHT22;5715;48.234;14.320;2022-08-19T13:28:56;28.80;99.90
11320;DHT22;5715;48.234;14.320;2022-08-19T13:32:02;28.50;99.90
11320;DHT22;5715;48.234;14.320;2022-08-19T13:35:09;28.50;99.90
11320;DHT22;5715;48.234;14.320;2022-08-19T13:38:02;28.60;99.90
11320;DHT22;5715;48.234;14.320;2022-08-19T13:41:04;28.80;99.90
11320;DHT22;5715;48.234;14.320;2022-08-19T13:43:58;28.90;99.90
11320;DHT22;5715;48.234;14.320;2022-08-19T13:46:47;28.90;99.90
11320;DHT22;5715;48.234;14.320;2022-08-19T13:49:40;28.80;99.90
11320;DHT22;5715;48.234;14.320;2022-08-19T13:52:27;28.90;99.90
11320;DHT22;5715;48.234;14.320;2022-08-19T13:55:15;28.80;99.90
11320;DHT22;5715;48.234;14.320;2022-08-19T13:58:11;28.90;99.90
11320;DHT22;5715;48.234;14.320;2022-08-19T14:00:59;29.20;99.90
11320;DHT22;5715;48.234;14.320;2022-08-19T14:03:47;29.20;99.90
11320;DHT22;5715;48.234;14.320;2022-08-19T14:06:35;29.00;99.90
11320;DHT22;5715;48.234;14.320;2022-08-19T14:09:23;29.10;99.90
11320;DHT22;5715;48.234;14.320;2022-08-19T14:12:10;29.30;99.90
11320;DHT22;5715;48.234;14.320;2022-08-19T14:14:58;29.30;99.90
11320;DHT22;5715;48.234;14.320;2022-08-19T14:17:46;29.40;99.90
11320;DHT22;5715;48.234;14.320;2022-08-19T14:20:35;29.50;99.90
11320;DHT22;5715;48.234;14.320;2022-08-19T14:23:23;29.70;99.90
11320;DHT22;5715;48.234;14.320;2022-08-19T14:26:14;29.60;99.90
11320;DHT22;5715;48.234;14.320;2022-08-19T14:29:03;29.40;99.90
11320;DHT22;5715;48.234;14.320;2022-08-19T14:31:51;29.40;99.90
11320;DHT22;5715;48.234;14.320;2022-08-19T14:34:38;29.50;99.90
11320;DHT22;5715;48.234;14.320;2022-08-19T14:37:27;29.30;99.90
11320;DHT22;5715;48.234;14.320;2022-08-19T14:40:18;29.10;99.90
11320;DHT22;5715;48.234;14.320;2022-08-19T14:43:12;29.00;99.90
11320;DHT22;5715;48.234;14.320;2022-08-19T14:46:04;29.00;99.90
11320;DHT22;5715;48.234;14.320;2022-08-19T14:48:52;29.00;99.90
11320;DHT22;5715;48.234;14.320;2022-08-19T14:51:40;28.90;99.90
11320;DHT22;5715;48.234;14.320;2022-08-19T14:54:28;28.60;99.90
11320;DHT22;5715;48.234;14.320;2022-08-19T14:57:16;28.40;99.90
11320;DHT22;5715;48.234;14.320;2022-08-19T15:00:04;28.20;99.90
11320;DHT22;5715;48.234;14.320;2022-08-19T15:02:52;28.10;99.90
11320;DHT22;5715;48.234;14.320;2022-08-19T15:05:43;27.80;99.90
11320;DHT22;5715;48.234;14.320;2022-08-19T15:08:33;27.70;99.90
11320;DHT22;5715;48.234;14.320;2022-08-19T15:11:25;27.60;99.90
11320;DHT22;5715;48.234;14.320;2022-08-19T15:14:15;27.50;99.90
11320;DHT22;5715;48.234;14.320;2022-08-19T15:17:04;27.40;99.90
11320;DHT22;5715;48.234;14.320;2022-08-19T15:19:52;27.20;99.90
11320;DHT22;5715;48.234;14.320;2022-08-19T15:22:40;27.00;99.90
11320;DHT22;5715;48.234;14.320;2022-08-19T15:25:29;26.80;99.90
11320;DHT22;5715;48.234;14.320;2022-08-19T15:28:16;26.70;99.90
11320;DHT22;5715;48.234;14.320;2022-08-19T15:31:05;25.20;99.90
11320;DHT22;5715;48.234;14.320;2022-08-19T15:33:52;24.10;99.90
11320;DHT22;5715;48.234;14.320;2022-08-19T15:36:43;23.20;99.90
11320;DHT22;5715;48.234;14.320;2022-08-19T15:39:31;22.30;99.90
11320;DHT22;5715;48.234;14.320;2022-08-19T15:42:19;21.50;99.90
11320;DHT22;5715;48.234;14.320;2022-08-19T15:45:18;20.70;99.90
11320;DHT22;5715;48.234;14.320;2022-08-19T15:48:07;20.20;99.90
11320;DHT22;5715;48.234;14.320;2022-08-19T15:50:55;19.80;99.90
11320;DHT22;5715;48.234;14.320;2022-08-19T15:53:42;19.40;99.90
11320;DHT22;5715;48.234;14.320;2022-08-19T15:56:30;19.10;99.90
11320;DHT22;5715;48.234;14.320;2022-08-19T15:59:44;19.00;99.90
11320;DHT22;5715;48.234;14.320;2022-08-19T16:02:50;18.70;99.90
11320;DHT22;5715;48.234;14.320;2022-08-19T16:06:17;18.60;99.90
11320;DHT22;5715;48.234;14.320;2022-08-19T16:09:15;18.50;99.90
11320;DHT22;5715;48.234;14.320;2022-08-19T16:12:12;18.50;99.90
11320;DHT22;5715;48.234;14.320;2022-08-19T16:15:00;18.60;99.90
11320;DHT22;5715;48.234;14.320;2022-08-19T16:17:47;18.70;99.90
11320;DHT22;5715;48.234;14.320;2022-08-19T16:20:43;18.70;99.90
11320;DHT22;5715;48.234;14.320;2022-08-19T16:23:34;18.70;99.90
11320;DHT22;5715;48.234;14.320;2022-08-19T16:26:21;18.70;99.90
11320;DHT22;5715;48.234;14.320;2022-08-19T16:29:15;18.60;99.90
11320;DHT22;5715;48.234;14.320;2022-08-19T16:32:20;18.20;99.90
11320;DHT22;5715;48.234;14.320;2022-08-19T16:35:08;18.00;99.90
11320;DHT22;5715;48.234;14.320;2022-08-19T16:37:56;17.90;99.90
11320;DHT22;5715;48.234;14.320;2022-08-19T16:40:44;17.80;99.90
11320;DHT22;5715;48.234;14.320;2022-08-19T16:43:34;17.80;99.90
11320;DHT22;5715;48.234;14.320;2022-08-19T16:46:23;17.80;99.90
11320;DHT22;5715;48.234;14.320;2022-08-19T16:49:13;17.80;99.90
11320;DHT22;5715;48.234;14.320;2022-08-19T16:52:07;17.80;99.90
11320;DHT22;5715;48.234;14.320;2022-08-19T16:54:55;18.00;99.90
11320;DHT22;5715;48.234;14.320;2022-08-19T16:57:43;18.10;99.90
11320;DHT22;5715;48.234;14.320;2022-08-19T17:00:30;18.10;99.90
11320;DHT22;5715;48.234;14.320;2022-08-19T17:03:19;18.10;99.90
11320;DHT22;5715;48.234;14.320;2022-08-19T17:06:27;18.10;99.90
11320;DHT22;5715;48.234;14.320;2022-08-19T17:09:16;18.30;99.90
11320;DHT22;5715;48.234;14.320;2022-08-19T17:12:12;18.40;99.90
11320;DHT22;5715;48.234;14.320;2022-08-19T17:15:00;18.50;99.90
11320;DHT22;5715;48.234;14.320;2022-08-19T17:17:48;18.40;99.90
11320;DHT22;5715;48.234;14.320;2022-08-19T17:20:36;18.40;99.90
11320;DHT22;5715;48.234;14.320;2022-08-19T17:23:24;18.40;99.90
11320;DHT22;5715;48.234;14.320;2022-08-19T17:26:30;18.40;99.90
11320;DHT22;5715;48.234;14.320;2022-08-19T17:29:18;18.50;99.90
11320;DHT22;5715;48.234;14.320;2022-08-19T17:32:05;18.50;99.90
11320;DHT22;5715;48.234;14.320;2022-08-19T17:34:53;18.60;99.90
11320;DHT22;5715;48.234;14.320;2022-08-19T17:37:41;18.60;99.90
11320;DHT22;5715;48.234;14.320;2022-08-19T17:40:29;18.60;99.90
11320;DHT22;5715;48.234;14.320;2022-08-19T17:43:19;18.60;99.90
11320;DHT22;5715;48.234;14.320;2022-08-19T17:46:21;18.50;99.90
11320;DHT22;5715;48.234;14.320;2022-08-19T17:49:08;18.50;99.90
11320;DHT22;5715;48.234;14.320;2022-08-19T17:51:56;18.40;99.90
11320;DHT22;5715;48.234;14.320;2022-08-19T17:54:45;18.40;99.90
11320;DHT22;5715;48.234;14.320;2022-08-19T17:57:33;18.30;99.90
11320;DHT22;5715;48.234;14.320;2022-08-19T18:00:21;18.30;99.90
11320;DHT22;5715;48.234;14.320;2022-08-19T18:03:10;18.20;99.90
11320;DHT22;5715;48.234;14.320;2022-08-19T18:05:58;18.20;99.90